Time;durP1;ratioP1;P1;durP2;ratioP2;P2;SDS_P1;SDS_P2;PMS_P1;PMS_P2;Temp;Humidity;BMP_temperature;BMP_pressure;BME280_temperature;BME280_humidity;BME280_pressure;Samples;Min_cycle;Max_cycle;Signal;HPM_P1;HPM_P2
2023/10/11 00:00:56;;;;;;;12.00;4.63;;;10.30;97.50;;;;;;2081056;28;20675;-85
2023/10/11 00:02:00;;;;;;;7.95;4.80;;;10.30;97.50;;;;;;2086742;28;20232;-85
2023/10/11 00:04:26;;;;;;;10.40;5.15;;;10.30;97.30;;;;;;2090823;28;20230;-85
2023/10/11 00:05:39;;;;;;;11.02;4.70;;;10.30;97.30;;;;;;2084268;28;20701;-85
2023/10/11 00:06:39;;;;;;;11.82;4.70;;;10.30;97.50;;;;;;2080854;28;20229;-85
2023/10/11 00:07:42;;;;;;;12.60;4.97;;;10.20;97.60;;;;;;2076412;28;20233;-86
2023/10/11 00:08:43;;;;;;;10.32;4.65;;;10.20;97.60;;;;;;2075487;28;20296;-86
2023/10/11 00:09:44;;;;;;;11.33;5.23;;;10.20;97.60;;;;;;2081183;28;20216;-85
2023/10/11 00:10:53;;;;;;;12.47;5.13;;;10.20;97.50;;;;;;2077664;28;20230;-84
2023/10/11 00:11:56;;;;;;;12.77;5.50;;;10.20;97.60;;;;;;2084562;28;20236;-85
2023/10/11 00:12:58;;;;;;;10.18;4.97;;;10.20;97.50;;;;;;2084745;28;20228;-86
2023/10/11 00:13:59;;;;;;;10.13;4.95;;;10.20;97.40;;;;;;2090680;28;20231;-85
2023/10/11 00:15:00;;;;;;;12.45;5.32;;;10.20;97.40;;;;;;2089189;28;20232;-85
2023/10/11 00:16:09;;;;;;;8.77;4.60;;;10.20;97.40;;;;;;2086364;28;20220;-85
2023/10/11 00:17:10;;;;;;;9.60;5.07;;;10.20;97.50;;;;;;2081666;28;20191;-86
2023/10/11 00:18:10;;;;;;;11.40;4.60;;;10.20;97.40;;;;;;2090672;28;20184;-85
2023/10/11 00:19:15;;;;;;;9.23;5.37;;;10.10;97.40;;;;;;2084532;28;20195;-85
2023/10/11 00:20:19;;;;;;;13.18;5.47;;;10.10;97.60;;;;;;2073455;28;20201;-85
2023/10/11 00:21:35;;;;;;;11.27;5.38;;;10.00;97.90;;;;;;2078411;28;20350;-86
2023/10/11 00:22:36;;;;;;;10.93;4.57;;;10.00;98.00;;;;;;2080802;28;20258;-85
2023/10/11 00:23:42;;;;;;;13.07;4.97;;;9.90;98.10;;;;;;2080409;28;20380;-85
2023/10/11 00:24:44;;;;;;;11.65;5.13;;;10.00;98.30;;;;;;2090674;28;20231;-85
2023/10/11 00:25:44;;;;;;;11.13;5.20;;;10.00;98.40;;;;;;2088890;28;20232;-85
2023/10/11 00:26:49;;;;;;;10.47;5.67;;;10.00;98.40;;;;;;2076383;28;20228;-85
2023/10/11 00:27:58;;;;;;;9.77;5.35;;;10.00;98.10;;;;;;2080478;28;20243;-85
2023/10/11 00:29:00;;;;;;;10.15;5.20;;;10.00;98.20;;;;;;2081353;28;20255;-85
2023/10/11 00:30:02;;;;;;;10.65;5.07;;;10.00;98.30;;;;;;2089435;28;20357;-85
2023/10/11 00:31:02;;;;;;;11.07;5.43;;;10.00;98.50;;;;;;2085549;28;20696;-86
2023/10/11 00:32:04;;;;;;;11.83;5.43;;;10.00;98.10;;;;;;2085452;28;20188;-85
2023/10/11 00:33:07;;;;;;;8.88;5.38;;;10.00;98.10;;;;;;2087045;28;20228;-85
2023/10/11 00:34:10;;;;;;;11.43;5.70;;;10.10;98.30;;;;;;2088761;28;20176;-85
2023/10/11 00:35:18;;;;;;;10.50;5.22;;;10.00;98.20;;;;;;2086764;28;20259;-85
2023/10/11 00:36:29;;;;;;;10.73;5.25;;;10.00;98.20;;;;;;2090881;28;20205;-85
2023/10/11 00:37:29;;;;;;;9.45;5.20;;;10.00;98.30;;;;;;2082542;28;20228;-84
2023/10/11 00:38:31;;;;;;;10.57;5.40;;;9.90;98.30;;;;;;2081444;28;20225;-85
2023/10/11 00:39:33;;;;;;;8.02;4.75;;;9.90;98.50;;;;;;2081233;28;20631;-85
2023/10/11 00:40:33;;;;;;;12.15;5.00;;;10.00;98.40;;;;;;2081704;28;20286;-87
2023/10/11 00:41:39;;;;;;;13.23;5.17;;;10.00;98.00;;;;;;2090770;28;20227;-87
2023/10/11 00:42:41;;;;;;;11.52;4.82;;;10.00;97.90;;;;;;2096326;28;20219;-85
2023/10/11 00:43:47;;;;;;;10.05;5.25;;;9.90;98.10;;;;;;2088888;28;20235;-85
2023/10/11 00:44:47;;;;;;;11.30;5.30;;;9.90;98.50;;;;;;2082819;28;20232;-84
2023/10/11 00:45:48;;;;;;;12.10;5.07;;;10.00;98.40;;;;;;2082456;28;20256;-85
2023/10/11 00:47:55;;;;;;;10.45;5.55;;;9.90;98.50;;;;;;2085496;28;20691;-85
2023/10/11 00:49:14;;;;;;;10.68;5.40;;;9.90;98.40;;;;;;2088453;28;20228;-85
2023/10/11 00:50:14;;;;;;;13.02;5.40;;;9.90;98.30;;;;;;2084913;28;20867;-85
2023/10/11 00:51:15;;;;;;;9.97;4.97;;;9.90;98.30;;;;;;2078146;28;20207;-85
2023/10/11 00:52:16;;;;;;;14.13;5.37;;;9.90;98.60;;;;;;2081532;28;20197;-85
2023/10/11 00:53:18;;;;;;;10.77;5.20;;;9.90;98.80;;;;;;2092317;28;20199;-85
2023/10/11 00:54:21;;;;;;;10.48;4.70;;;9.90;98.70;;;;;;2088863;28;20196;-86
2023/10/11 00:55:23;;;;;;;10.07;5.05;;;9.90;98.60;;;;;;2073753;28;20234;-85
2023/10/11 00:56:26;;;;;;;10.30;4.97;;;9.90;98.30;;;;;;2064442;28;20232;-85
2023/10/11 00:57:27;;;;;;;11.13;5.07;;;9.90;98.30;;;;;;2091100;28;20249;-86
2023/10/11 00:58:28;;;;;;;11.90;5.15;;;9.90;98.30;;;;;;2080659;28;20602;-85
2023/10/11 00:59:30;;;;;;;10.83;4.93;;;9.90;98.30;;;;;;2079905;28;20282;-85
2023/10/11 01:00:35;;;;;;;16.65;5.32;;;9.80;98.60;;;;;;2092966;28;20335;-84
2023/10/11 01:01:37;;;;;;;12.15;5.43;;;9.80;98.50;;;;;;2085534;28;20283;-85
2023/10/11 01:02:38;;;;;;;10.45;5.18;;;9.80;99.30;;;;;;2088305;28;20219;-84
2023/10/11 01:03:41;;;;;;;11.27;5.33;;;9.70;98.90;;;;;;2085616;28;20707;-84
2023/10/11 01:04:41;;;;;;;11.15;5.32;;;9.70;99.00;;;;;;2071014;28;20260;-85
2023/10/11 01:05:44;;;;;;;10.73;5.20;;;9.80;98.70;;;;;;2081998;28;20280;-85
2023/10/11 01:06:48;;;;;;;11.15;5.28;;;9.70;98.70;;;;;;2087582;28;20227;-85
2023/10/11 01:07:52;;;;;;;10.20;5.35;;;9.80;99.00;;;;;;2094369;28;20709;-85
2023/10/11 01:08:53;;;;;;;10.30;5.40;;;9.80;98.60;;;;;;2081348;28;20232;-85
2023/10/11 01:09:56;;;;;;;13.55;5.20;;;9.80;98.50;;;;;;2071265;28;20238;-85
2023/10/11 01:10:56;;;;;;;11.38;5.07;;;9.80;98.60;;;;;;2078757;28;20235;-84
2023/10/11 01:11:57;;;;;;;10.27;5.20;;;9.70;98.40;;;;;;2087130;28;20235;-85
2023/10/11 01:12:58;;;;;;;12.70;5.50;;;9.70;98.50;;;;;;2087320;28;20277;-85
2023/10/11 01:13:59;;;;;;;11.38;5.28;;;9.70;98.60;;;;;;2086811;28;20223;-85
2023/10/11 01:15:00;;;;;;;10.90;5.17;;;9.70;98.90;;;;;;2089469;28;20223;-85
2023/10/11 01:16:05;;;;;;;12.87;5.20;;;9.70;98.80;;;;;;2084190;28;20219;-85
2023/10/11 01:17:07;;;;;;;9.73;5.00;;;9.70;98.90;;;;;;2082502;28;20251;-85
2023/10/11 01:18:08;;;;;;;15.45;5.25;;;9.70;98.90;;;;;;2079647;28;20261;-85
2023/10/11 01:19:11;;;;;;;10.37;5.07;;;9.60;99.00;;;;;;2084696;28;20187;-84
2023/10/11 01:20:17;;;;;;;11.85;5.30;;;9.60;99.00;;;;;;2080799;28;20211;-85
2023/10/11 01:21:19;;;;;;;12.30;5.03;;;9.60;99.10;;;;;;2076151;28;20279;-85
2023/10/11 01:22:19;;;;;;;10.15;5.40;;;9.60;99.10;;;;;;2091748;28;20195;-85
2023/10/11 01:23:21;;;;;;;15.10;5.50;;;9.50;99.20;;;;;;2088777;28;20250;-85
2023/10/11 01:24:22;;;;;;;8.90;4.60;;;9.60;98.90;;;;;;2076320;28;20260;-84
2023/10/11 01:25:22;;;;;;;7.33;5.03;;;9.60;98.60;;;;;;2066759;28;20234;-85
2023/10/11 01:26:23;;;;;;;8.90;4.93;;;9.60;98.60;;;;;;2079584;28;20243;-86
2023/10/11 01:27:30;;;;;;;9.17;4.83;;;9.60;98.60;;;;;;2078545;28;20704;-84
2023/10/11 01:28:30;;;;;;;12.25;5.03;;;9.60;98.60;;;;;;2087755;28;20257;-85
2023/10/11 01:29:31;;;;;;;10.57;4.97;;;9.50;98.60;;;;;;2087639;28;20236;-84
2023/10/11 01:30:31;;;;;;;8.47;5.10;;;9.50;98.90;;;;;;2088005;28;20239;-85
2023/10/11 01:31:35;;;;;;;10.87;5.10;;;9.50;98.90;;;;;;2086827;28;20278;-86
2023/10/11 01:32:41;;;;;;;9.20;5.60;;;9.50;99.00;;;;;;2075575;28;20578;-84
2023/10/11 01:33:48;;;;;;;10.85;4.82;;;9.50;99.10;;;;;;2079670;28;20229;-85
2023/10/11 01:34:49;;;;;;;9.38;5.28;;;9.50;99.20;;;;;;2087939;28;20227;-85
2023/10/11 01:35:51;;;;;;;11.70;5.03;;;9.40;99.20;;;;;;2080371;28;20254;-85
2023/10/11 01:36:52;;;;;;;12.77;5.65;;;9.40;99.30;;;;;;2078776;28;20246;-85
2023/10/11 01:37:55;;;;;;;12.23;5.20;;;9.50;99.30;;;;;;2072573;28;20241;-85
2023/10/11 01:39:01;;;;;;;8.77;4.60;;;9.40;99.20;;;;;;2072635;28;20700;-85
2023/10/11 01:40:07;;;;;;;12.85;4.95;;;9.30;99.20;;;;;;2073343;28;20682;-85
2023/10/11 01:41:08;;;;;;;8.82;4.65;;;9.40;99.20;;;;;;2073658;28;20194;-84
2023/10/11 01:42:09;;;;;;;11.70;5.45;;;9.40;99.40;;;;;;2073085;28;20251;-85
2023/10/11 01:43:10;;;;;;;10.43;5.10;;;9.40;99.40;;;;;;2083740;28;20227;-84
2023/10/11 01:44:11;;;;;;;12.67;5.20;;;9.40;99.40;;;;;;2075009;28;20193;-85
2023/10/11 01:45:11;;;;;;;9.33;5.07;;;9.40;99.50;;;;;;2080592;28;20707;-85
2023/10/11 01:46:16;;;;;;;9.67;4.97;;;9.50;99.60;;;;;;2083244;28;20183;-85
2023/10/11 01:47:19;;;;;;;14.23;4.85;;;9.50;99.20;;;;;;2087496;28;20215;-85
2023/10/11 01:48:19;;;;;;;9.95;5.28;;;9.50;99.20;;;;;;2084129;28;20239;-85
2023/10/11 01:49:21;;;;;;;13.15;5.57;;;9.50;99.10;;;;;;2081349;28;20331;-84
2023/10/11 01:50:22;;;;;;;11.23;5.23;;;9.50;99.30;;;;;;2080199;28;20927;-85
2023/10/11 01:51:26;;;;;;;11.30;5.47;;;9.50;99.40;;;;;;2068272;28;20312;-85
2023/10/11 01:52:27;;;;;;;9.35;5.47;;;9.60;99.20;;;;;;2079563;28;20258;-85
2023/10/11 01:53:27;;;;;;;8.00;4.83;;;9.40;99.20;;;;;;2074966;28;20252;-84
2023/10/11 01:54:28;;;;;;;12.10;4.97;;;9.30;99.20;;;;;;2075363;28;20231;-85
2023/10/11 01:55:29;;;;;;;8.77;4.60;;;9.30;99.30;;;;;;2085975;28;20237;-85
2023/10/11 01:56:30;;;;;;;13.53;5.77;;;9.20;99.30;;;;;;2088872;28;20661;-85
2023/10/11 01:57:31;;;;;;;8.50;4.78;;;9.30;99.80;;;;;;2088062;28;20243;-85
2023/10/11 01:58:37;;;;;;;14.07;5.13;;;9.40;99.10;;;;;;2089399;28;20789;-84
2023/10/11 01:59:38;;;;;;;12.00;4.63;;;9.30;99.10;;;;;;2087158;28;20228;-84
2023/10/11 02:00:39;;;;;;;9.97;5.20;;;9.40;99.20;;;;;;2096203;28;20233;-85
2023/10/11 02:01:40;;;;;;;10.85;5.20;;;9.30;99.20;;;;;;2091409;28;20328;-85
2023/10/11 02:02:55;;;;;;;9.67;4.73;;;9.40;99.30;;;;;;2079332;28;20223;-87
2023/10/11 02:03:59;;;;;;;8.98;5.53;;;9.30;99.20;;;;;;2084387;28;20604;-84
2023/10/11 02:05:04;;;;;;;9.93;5.13;;;9.30;99.20;;;;;;2089072;28;20296;-85
2023/10/11 02:06:05;;;;;;;10.75;4.95;;;9.30;99.10;;;;;;2085728;28;20224;-84
2023/10/11 02:07:07;;;;;;;10.32;4.60;;;9.30;99.20;;;;;;2086513;28;20279;-85
2023/10/11 02:08:12;;;;;;;11.32;5.10;;;9.30;99.20;;;;;;2082663;28;20271;-84
2023/10/11 02:09:12;;;;;;;10.48;5.18;;;9.30;99.10;;;;;;2083505;28;20195;-84
2023/10/11 02:10:13;;;;;;;7.83;4.47;;;9.30;99.10;;;;;;2085374;28;20190;-84
2023/10/11 02:11:14;;;;;;;9.13;5.53;;;9.30;99.10;;;;;;2073645;28;20262;-84
2023/10/11 02:12:17;;;;;;;11.07;4.90;;;9.40;98.90;;;;;;2082693;28;20228;-85
2023/10/11 02:13:18;;;;;;;13.13;4.97;;;9.30;98.90;;;;;;2081442;28;20174;-84
2023/10/11 02:14:22;;;;;;;8.83;5.10;;;9.30;99.00;;;;;;2085283;28;20539;-85
2023/10/11 02:15:29;;;;;;;10.02;5.25;;;9.30;99.10;;;;;;2080994;28;20229;-84
2023/10/11 02:16:32;;;;;;;10.32;4.72;;;9.30;99.20;;;;;;2088999;28;20235;-86
2023/10/11 02:17:33;;;;;;;12.27;5.20;;;9.30;99.40;;;;;;2097770;28;20228;-86
2023/10/11 02:18:34;;;;;;;9.10;4.95;;;9.30;99.30;;;;;;2096345;28;20231;-87
2023/10/11 02:19:34;;;;;;;12.43;5.23;;;9.30;99.30;;;;;;2087361;28;20289;-86
2023/10/11 02:20:35;;;;;;;9.33;5.03;;;9.30;99.10;;;;;;2091529;28;20244;-84
2023/10/11 02:21:36;;;;;;;12.57;4.90;;;9.30;99.50;;;;;;2092300;28;20242;-85
2023/10/11 02:22:37;;;;;;;8.73;5.50;;;9.30;99.30;;;;;;2080812;28;20701;-85
2023/10/11 02:23:39;;;;;;;10.87;5.43;;;9.30;99.50;;;;;;2085861;28;20319;-84
2023/10/11 02:24:40;;;;;;;7.60;4.88;;;9.30;99.40;;;;;;2085079;28;20231;-84
2023/10/11 02:25:44;;;;;;;10.57;4.77;;;9.30;99.30;;;;;;2073819;28;20315;-84
2023/10/11 02:26:50;;;;;;;10.25;4.70;;;9.30;99.60;;;;;;2083127;28;20388;-84
2023/10/11 02:27:53;;;;;;;8.40;4.88;;;9.30;99.70;;;;;;2094643;28;20771;-84
2023/10/11 02:28:54;;;;;;;10.10;4.53;;;9.30;99.70;;;;;;2094555;28;20229;-86
2023/10/11 02:29:55;;;;;;;9.25;4.78;;;9.30;99.70;;;;;;2096864;28;20214;-86
2023/10/11 02:30:56;;;;;;;9.30;5.00;;;9.30;99.50;;;;;;2095851;28;20254;-86
2023/10/11 02:31:58;;;;;;;9.52;5.00;;;9.30;99.50;;;;;;2084825;28;20580;-85
2023/10/11 02:32:58;;;;;;;11.85;5.30;;;9.30;99.70;;;;;;2083462;28;20239;-85
2023/10/11 02:34:14;;;;;;;9.07;4.90;;;9.20;99.80;;;;;;2076830;28;20236;-85
2023/10/11 02:35:18;;;;;;;8.57;5.10;;;9.30;99.60;;;;;;2078200;28;20232;-84
2023/10/11 02:36:18;;;;;;;15.60;5.00;;;9.40;99.40;;;;;;2075368;28;20273;-84
2023/10/11 02:37:22;;;;;;;13.60;5.77;;;9.40;99.40;;;;;;2082478;28;20192;-84
2023/10/11 02:38:23;;;;;;;11.57;4.80;;;9.30;99.50;;;;;;2089882;28;20231;-86
2023/10/11 02:39:31;;;;;;;11.10;4.85;;;9.30;99.60;;;;;;2090995;28;20869;-85
2023/10/11 02:40:37;;;;;;;12.73;5.30;;;9.40;99.80;;;;;;2091013;28;20695;-85
2023/10/11 02:41:38;;;;;;;11.80;5.18;;;9.40;99.90;;;;;;2081840;28;20235;-84
2023/10/11 02:42:38;;;;;;;9.27;4.30;;;9.30;99.90;;;;;;2075279;28;20251;-85
2023/10/11 02:43:48;;;;;;;10.30;4.90;;;9.30;99.90;;;;;;2087595;28;20239;-85
2023/10/11 02:44:48;;;;;;;10.70;5.10;;;9.30;99.80;;;;;;2093258;28;20239;-85
2023/10/11 02:45:50;;;;;;;8.53;4.40;;;9.40;99.70;;;;;;2090086;28;20239;-85
2023/10/11 02:46:51;;;;;;;11.18;4.82;;;9.50;99.80;;;;;;2089315;28;20229;-85
2023/10/11 02:48:02;;;;;;;12.40;5.05;;;9.40;99.60;;;;;;2083160;28;20239;-85
2023/10/11 02:49:07;;;;;;;12.63;5.28;;;9.40;99.60;;;;;;2078987;28;20310;-85
2023/10/11 02:50:08;;;;;;;9.48;4.68;;;9.40;99.60;;;;;;2093038;28;20217;-86
2023/10/11 02:51:15;;;;;;;12.48;4.85;;;9.40;99.60;;;;;;2081647;28;20273;-85
2023/10/11 02:52:18;;;;;;;11.95;4.90;;;9.40;99.60;;;;;;2082368;28;20185;-85
2023/10/11 02:53:22;;;;;;;8.48;4.53;;;9.40;99.70;;;;;;2080858;28;20181;-85
2023/10/11 02:54:34;;;;;;;10.00;4.90;;;9.50;99.70;;;;;;2080108;28;20279;-86
2023/10/11 02:55:38;;;;;;;11.15;5.00;;;9.50;99.40;;;;;;2093112;28;20227;-85
2023/10/11 02:56:47;;;;;;;7.45;4.15;;;9.40;99.40;;;;;;2085301;28;20223;-85
2023/10/11 02:58:05;;;;;;;10.27;4.75;;;9.40;99.60;;;;;;2089709;28;20233;-85
2023/10/11 02:59:07;;;;;;;12.10;4.70;;;9.50;99.30;;;;;;2090058;28;20219;-85
2023/10/11 03:00:21;;;;;;;9.70;4.47;;;9.50;99.10;;;;;;2077078;28;20188;-85
2023/10/11 03:01:21;;;;;;;11.27;4.50;;;9.40;99.20;;;;;;2083379;28;20693;-84
2023/10/11 03:02:23;;;;;;;12.13;4.63;;;9.50;99.20;;;;;;2093630;28;20234;-85
2023/10/11 03:03:26;;;;;;;9.60;5.05;;;9.50;99.20;;;;;;2077201;28;20231;-85
2023/10/11 03:04:28;;;;;;;11.57;5.38;;;9.50;99.20;;;;;;2080930;28;20277;-85
2023/10/11 03:05:28;;;;;;;11.15;4.93;;;9.50;99.20;;;;;;2085335;28;20224;-85
2023/10/11 03:06:35;;;;;;;13.23;5.20;;;9.50;99.20;;;;;;2084816;28;20232;-84
2023/10/11 03:07:36;;;;;;;8.25;4.53;;;9.60;99.10;;;;;;2089467;28;20642;-85
2023/10/11 03:08:44;;;;;;;7.97;4.07;;;9.50;99.10;;;;;;2088482;28;20220;-85
2023/10/11 03:09:44;;;;;;;10.18;4.65;;;9.50;99.10;;;;;;2084336;28;20298;-85
2023/10/11 03:11:04;;;;;;;9.80;4.70;;;9.60;99.00;;;;;;2081299;28;20236;-85
2023/10/11 03:12:05;;;;;;;13.63;5.00;;;9.60;98.90;;;;;;2089647;28;20227;-85
2023/10/11 03:13:06;;;;;;;9.88;5.30;;;9.60;98.90;;;;;;2083557;28;20187;-85
2023/10/11 03:14:06;;;;;;;8.90;4.47;;;9.60;99.00;;;;;;2076860;28;20210;-84
2023/10/11 03:15:11;;;;;;;10.20;5.57;;;9.50;98.90;;;;;;2081307;28;20188;-85
2023/10/11 03:16:13;;;;;;;11.15;4.97;;;9.50;99.00;;;;;;2084785;28;20634;-85
2023/10/11 03:17:15;;;;;;;11.00;4.82;;;9.60;98.90;;;;;;2082176;28;20276;-84
2023/10/11 03:18:16;;;;;;;8.63;4.60;;;9.60;98.60;;;;;;2089752;28;20172;-85
2023/10/11 03:19:17;;;;;;;13.23;5.50;;;9.60;98.60;;;;;;2087950;28;20671;-85
2023/10/11 03:20:32;;;;;;;12.30;4.63;;;9.60;98.80;;;;;;2088651;28;20223;-85
2023/10/11 03:21:35;;;;;;;13.35;4.53;;;9.50;98.90;;;;;;2091414;28;20229;-85
2023/10/11 03:22:36;;;;;;;8.90;4.68;;;9.50;98.90;;;;;;2092821;28;20277;-85
2023/10/11 03:23:43;;;;;;;10.93;4.83;;;9.50;98.90;;;;;;2074095;28;20262;-85
2023/10/11 03:24:43;;;;;;;11.38;5.10;;;9.60;99.10;;;;;;2079854;28;20221;-85
2023/10/11 03:25:49;;;;;;;10.50;5.03;;;9.50;98.90;;;;;;2091474;28;20707;-85
2023/10/11 03:26:51;;;;;;;14.13;5.28;;;9.50;99.00;;;;;;2085269;28;20322;-85
2023/10/11 03:27:52;;;;;;;8.82;4.65;;;9.50;99.10;;;;;;2076896;28;20245;-85
2023/10/11 03:28:59;;;;;;;12.93;5.03;;;9.50;99.00;;;;;;2072366;28;20310;-86
2023/10/11 03:30:01;;;;;;;10.57;4.60;;;9.40;99.20;;;;;;2073395;28;20224;-85
2023/10/11 03:31:01;;;;;;;10.45;4.88;;;9.50;99.30;;;;;;2080945;28;20255;-84
2023/10/11 03:32:05;;;;;;;11.83;5.10;;;9.40;99.30;;;;;;2089193;28;20679;-86
2023/10/11 03:33:07;;;;;;;8.38;4.63;;;9.40;99.40;;;;;;2084933;28;20195;-85
2023/10/11 03:34:10;;;;;;;13.88;5.78;;;9.50;99.50;;;;;;2078147;28;20193;-85
2023/10/11 03:35:16;;;;;;;13.73;5.30;;;9.40;99.50;;;;;;2079663;28;20590;-85
2023/10/11 03:36:21;;;;;;;10.23;5.18;;;9.50;99.40;;;;;;2081541;28;20284;-85
2023/10/11 03:37:21;;;;;;;10.93;5.13;;;9.40;99.50;;;;;;2086827;28;20228;-85
2023/10/11 03:38:22;;;;;;;10.03;4.90;;;9.50;99.50;;;;;;2087942;28;20234;-86
2023/10/11 03:40:54;;;;;;;11.23;5.22;;;9.50;99.50;;;;;;2085520;28;20548;-85
2023/10/11 03:42:07;;;;;;;9.38;4.70;;;9.50;99.40;;;;;;2092694;28;20726;-86
2023/10/11 03:43:16;;;;;;;12.52;5.07;;;9.50;99.00;;;;;;2081734;28;20255;-85
2023/10/11 03:44:17;;;;;;;11.43;5.32;;;9.50;98.90;;;;;;2074451;28;20190;-86
2023/10/11 03:45:20;;;;;;;10.88;4.57;;;9.50;98.90;;;;;;2088093;28;20190;-85
2023/10/11 03:46:28;;;;;;;11.70;5.72;;;9.50;98.80;;;;;;2085121;28;22390;-86
2023/10/11 03:47:31;;;;;;;11.60;4.82;;;9.50;98.70;;;;;;2077689;28;20228;-86
2023/10/11 03:48:43;;;;;;;10.63;5.30;;;9.50;98.80;;;;;;2087585;28;20224;-85
2023/10/11 03:49:51;;;;;;;11.50;4.72;;;9.60;98.80;;;;;;2080109;28;20230;-85
2023/10/11 03:50:51;;;;;;;10.65;5.28;;;9.60;98.90;;;;;;2087902;28;20258;-85
2023/10/11 03:51:52;;;;;;;11.97;4.97;;;9.60;98.90;;;;;;2084204;28;20262;-86
2023/10/11 03:53:06;;;;;;;9.73;5.00;;;9.50;99.40;;;;;;2081853;28;20243;-85
2023/10/11 03:54:07;;;;;;;10.93;4.85;;;9.50;99.20;;;;;;2089300;28;20227;-84
2023/10/11 03:55:10;;;;;;;8.97;4.70;;;9.50;99.00;;;;;;2089219;28;20175;-84
2023/10/11 03:56:11;;;;;;;9.65;4.70;;;9.50;99.10;;;;;;2087675;28;20271;-85
2023/10/11 03:57:12;;;;;;;9.80;4.30;;;9.40;99.20;;;;;;2084780;28;20192;-85
2023/10/11 03:58:32;;;;;;;9.53;4.57;;;9.50;99.20;;;;;;2086084;28;20196;-84
2023/10/11 03:59:38;;;;;;;9.05;4.75;;;9.50;99.40;;;;;;2074667;28;20741;-85
2023/10/11 04:00:46;;;;;;;11.00;5.07;;;9.50;99.30;;;;;;2080129;28;20235;-84
2023/10/11 04:01:49;;;;;;;8.45;4.57;;;9.60;99.20;;;;;;2083986;28;20228;-86
2023/10/11 04:02:57;;;;;;;13.05;4.88;;;9.60;99.10;;;;;;2090097;28;20227;-86
2023/10/11 04:03:57;;;;;;;9.55;4.40;;;9.60;99.20;;;;;;2090089;28;20215;-85
2023/10/11 04:04:58;;;;;;;9.03;4.60;;;9.50;99.00;;;;;;2080406;28;20775;-86
2023/10/11 04:05:59;;;;;;;11.43;5.20;;;9.60;99.00;;;;;;2081376;28;20311;-85
2023/10/11 04:07:04;;;;;;;12.63;4.93;;;9.50;99.10;;;;;;2089432;28;20228;-85
2023/10/11 04:08:05;;;;;;;13.43;4.80;;;9.50;99.00;;;;;;2087251;28;20230;-85
2023/10/11 04:09:22;;;;;;;9.32;4.57;;;9.40;99.20;;;;;;2094273;28;20177;-84
2023/10/11 04:10:38;;;;;;;10.60;4.97;;;9.50;99.30;;;;;;2089365;28;20306;-84
2023/10/11 04:11:54;;;;;;;9.80;4.60;;;9.50;99.30;;;;;;2090896;28;20240;-84
2023/10/11 04:12:55;;;;;;;10.73;4.88;;;9.50;99.40;;;;;;2085996;28;20234;-84
2023/10/11 04:13:55;;;;;;;11.93;5.60;;;9.60;99.10;;;;;;2090956;28;20228;-84
2023/10/11 04:14:58;;;;;;;11.77;4.67;;;9.60;98.70;;;;;;2085912;28;20227;-84
2023/10/11 04:16:00;;;;;;;12.60;4.38;;;9.70;98.70;;;;;;2078402;28;20242;-84
2023/10/11 04:17:00;;;;;;;10.73;4.68;;;9.70;98.70;;;;;;2083492;28;20235;-84
2023/10/11 04:18:13;;;;;;;11.77;4.97;;;9.60;98.70;;;;;;2072571;28;20712;-84
2023/10/11 04:19:14;;;;;;;7.40;4.20;;;9.70;98.50;;;;;;2067004;28;20228;-84
2023/10/11 04:20:19;;;;;;;11.83;4.63;;;9.70;98.30;;;;;;2078770;28;20232;-85
2023/10/11 04:21:35;;;;;;;12.18;5.30;;;9.70;98.40;;;;;;2086312;28;20627;-85
2023/10/11 04:22:36;;;;;;;9.25;4.68;;;9.60;98.40;;;;;;2090169;28;20242;-84
2023/10/11 04:23:39;;;;;;;8.87;4.93;;;9.60;98.40;;;;;;2089209;28;20228;-85
2023/10/11 04:24:41;;;;;;;10.35;4.57;;;9.60;98.40;;;;;;2088403;28;20231;-85
2023/10/11 04:25:44;;;;;;;12.25;5.57;;;9.50;98.40;;;;;;2091083;28;20222;-87
2023/10/11 04:26:53;;;;;;;12.13;5.20;;;9.60;98.60;;;;;;2071710;28;20220;-85
2023/10/11 04:27:56;;;;;;;8.68;4.57;;;9.60;98.70;;;;;;2082614;28;20229;-85
2023/10/11 04:28:58;;;;;;;11.25;4.43;;;9.60;98.50;;;;;;2080209;28;20299;-85
2023/10/11 04:30:06;;;;;;;11.95;4.60;;;9.50;98.50;;;;;;2086697;28;20548;-85
2023/10/11 04:31:36;;;;;;;11.98;4.65;;;9.50;98.70;;;;;;2093217;28;20234;-85
2023/10/11 04:33:45;;;;;;;10.65;4.35;;;9.50;98.90;;;;;;2084395;28;20212;-83
2023/10/11 04:34:55;;;;;;;9.82;4.30;;;9.50;98.90;;;;;;2081943;28;20270;-84
2023/10/11 04:35:56;;;;;;;10.15;4.40;;;9.50;99.00;;;;;;2092287;28;20236;-85
2023/10/11 04:36:56;;;;;;;9.63;5.05;;;9.50;98.90;;;;;;2086842;28;20258;-85
2023/10/11 04:38:03;;;;;;;14.13;4.87;;;9.40;98.80;;;;;;2071890;28;20228;-87
2023/10/11 04:39:14;;;;;;;9.55;4.40;;;9.40;98.80;;;;;;2083436;28;20228;-86
2023/10/11 04:40:51;;;;;;;12.80;5.00;;;9.40;98.70;;;;;;2081959;28;20178;-85
2023/10/11 04:41:49;;;;;;;9.63;4.95;;;9.40;98.70;;;;;;2078673;28;20692;-85
2023/10/11 04:43:04;;;;;;;11.48;4.55;;;9.30;98.70;;;;;;2073398;28;20282;-85
2023/10/11 04:44:13;;;;;;;12.70;4.68;;;9.30;98.50;;;;;;2091577;28;20216;-85
2023/10/11 04:45:28;;;;;;;10.57;4.32;;;9.30;98.40;;;;;;2083268;28;20218;-85
2023/10/11 04:46:30;;;;;;;14.43;4.25;;;9.30;98.40;;;;;;2084548;28;20265;-83
2023/10/11 04:47:50;;;;;;;13.38;4.93;;;9.40;98.10;;;;;;2070226;28;20302;-85
2023/10/11 04:48:55;;;;;;;10.70;4.40;;;9.40;98.00;;;;;;2059469;28;20231;-86
2023/10/11 04:49:57;;;;;;;10.45;4.80;;;9.40;98.10;;;;;;2073260;28;20311;-85
2023/10/11 04:51:08;;;;;;;9.95;4.35;;;9.40;98.30;;;;;;2087198;28;20581;-85
2023/10/11 04:52:17;;;;;;;14.77;4.60;;;9.30;98.30;;;;;;2078760;28;20295;-85
2023/10/11 04:53:18;;;;;;;8.70;4.32;;;9.40;98.30;;;;;;2087576;28;20688;-86
2023/10/11 04:54:19;;;;;;;10.32;4.72;;;9.40;98.10;;;;;;2083612;28;20191;-85
2023/10/11 04:55:30;;;;;;;11.40;4.27;;;9.40;98.20;;;;;;2081423;28;20252;-85
2023/10/11 04:58:04;;;;;;;11.00;4.80;;;9.50;98.30;;;;;;2094722;28;20250;-85
2023/10/11 04:59:08;;;;;;;16.58;4.20;;;9.40;98.50;;;;;;2080153;28;20307;-86
2023/10/11 05:00:11;;;;;;;11.95;4.38;;;9.40;98.30;;;;;;2075857;28;20284;-87
2023/10/11 05:01:12;;;;;;;9.63;4.40;;;9.40;98.70;;;;;;2081840;28;20281;-85
2023/10/11 05:02:32;;;;;;;12.02;4.43;;;9.40;98.60;;;;;;2081330;28;20743;-85
2023/10/11 05:03:37;;;;;;;16.23;4.45;;;9.40;98.80;;;;;;2075184;28;20315;-86
2023/10/11 05:04:44;;;;;;;8.95;4.70;;;9.30;99.10;;;;;;2084485;28;20726;-85
2023/10/11 05:05:58;;;;;;;7.97;4.03;;;9.30;99.10;;;;;;2078906;28;20232;-86
2023/10/11 05:07:07;;;;;;;13.23;4.20;;;9.40;98.90;;;;;;2084260;28;20231;-86
2023/10/11 05:08:20;;;;;;;12.00;4.60;;;9.30;99.10;;;;;;2073604;28;20278;-85
2023/10/11 05:09:29;;;;;;;10.52;4.60;;;9.30;99.00;;;;;;2070989;28;20463;-87
2023/10/11 05:10:32;;;;;;;12.10;4.32;;;9.30;99.20;;;;;;2081934;28;20227;-87
2023/10/11 05:13:09;;;;;;;10.73;4.20;;;9.30;99.30;;;;;;2066636;28;20236;-86
2023/10/11 05:14:26;;;;;;;11.52;4.18;;;9.20;99.30;;;;;;2089909;28;20228;-86
2023/10/11 05:15:32;;;;;;;10.23;4.60;;;9.20;99.40;;;;;;2077376;28;20232;-86
2023/10/11 05:16:37;;;;;;;10.77;3.78;;;9.20;99.30;;;;;;2080902;28;20303;-84
2023/10/11 05:17:41;;;;;;;10.10;4.03;;;9.20;99.20;;;;;;2088647;28;20307;-86
2023/10/11 05:18:42;;;;;;;17.33;4.60;;;9.20;99.10;;;;;;2074915;28;20708;-86
2023/10/11 05:19:45;;;;;;;9.23;3.90;;;9.20;98.80;;;;;;2073568;28;20233;-86
2023/10/11 05:20:57;;;;;;;13.07;4.43;;;9.30;98.30;;;;;;2073588;28;20231;-86
2023/10/11 05:21:59;;;;;;;12.98;4.40;;;9.20;98.10;;;;;;2085869;28;20227;-87
2023/10/11 05:23:05;;;;;;;12.27;4.00;;;9.30;97.90;;;;;;2088903;28;20231;-86
2023/10/11 05:24:29;;;;;;;16.55;4.35;;;9.20;97.70;;;;;;2073756;28;20221;-86
2023/10/11 05:27:36;;;;;;;14.98;4.47;;;9.30;97.50;;;;;;2048711;29;20236;-87
2023/10/11 05:28:58;;;;;;;11.43;4.30;;;9.30;97.80;;;;;;2046225;29;20238;-85
2023/10/11 05:30:11;;;;;;;11.23;4.43;;;9.40;97.30;;;;;;2041305;29;20238;-86
2023/10/11 05:32:23;;;;;;;8.47;4.23;;;9.40;96.30;;;;;;2042365;29;20196;-84
2023/10/11 05:35:07;;;;;;;13.65;3.85;;;9.40;95.90;;;;;;2082071;28;20218;-84
2023/10/11 05:36:17;;;;;;;8.35;4.03;;;9.40;96.00;;;;;;2091123;28;20219;-84
2023/10/11 05:51:50;;;;;;;13.95;4.05;;;9.40;96.10;;;;;;2090512;28;20231;-86
2023/10/11 05:52:55;;;;;;;14.38;3.90;;;9.40;95.80;;;;;;2090634;28;20249;-86
2023/10/11 05:53:59;;;;;;;12.88;3.85;;;9.50;95.40;;;;;;2096762;28;20716;-86
2023/10/11 05:54:59;;;;;;;9.32;3.90;;;9.40;95.20;;;;;;2086668;28;20300;-86
2023/10/11 05:56:00;;;;;;;10.60;3.90;;;9.50;95.00;;;;;;2089430;28;20250;-86
2023/10/11 05:57:06;;;;;;;12.90;3.93;;;9.60;95.00;;;;;;2086180;28;20227;-86
2023/10/11 05:58:06;;;;;;;12.18;3.75;;;9.50;94.40;;;;;;2084107;28;20687;-86
2023/10/11 05:59:11;;;;;;;12.90;4.00;;;9.60;94.30;;;;;;2088874;28;20214;-86
2023/10/11 06:00:25;;;;;;;10.30;3.20;;;9.60;94.50;;;;;;2090651;28;20641;-86
2023/10/11 06:01:26;;;;;;;12.18;3.92;;;9.60;94.20;;;;;;2083713;28;20246;-86
2023/10/11 06:02:27;;;;;;;11.53;4.03;;;9.60;94.90;;;;;;2085300;28;20262;-86
2023/10/11 06:03:28;;;;;;;13.38;4.05;;;9.60;94.80;;;;;;2086374;28;20231;-86